Time,TemperatureF,DewpointF,PressureIn,WindDirection,WindDirectionDegrees,WindSpeedMPH,WindSpeedGustMPH,Humidity,HourlyPrecipIn,Conditions,Clouds,dailyrainin,SoftwareType,DateUTC
2013-07-15 00:01:00,75.4,73.5,30.09,NE,45,3.9,3.9,94,0.00,SCT,,0.00,WeatherDisplay:10.37,2013-07-15 04:01:00,
2013-07-15 00:06:00,75.4,73.5,30.09,NE,45,0.0,0.0,94,0.00,SCT,,0.00,WeatherDisplay:10.37,2013-07-15 04:06:00,
2013-07-15 00:11:00,75.4,73.5,30.09,NE,45,0.0,0.0,94,0.00,SCT,,0.00,WeatherDisplay:10.37,2013-07-15 04:11:00,
2013-07-15 00:16:00,75.4,73.5,30.09,NE,45,0.0,0.0,94,0.00,FEW,,0.00,WeatherDisplay:10.37,2013-07-15 04:16:00,
2013-07-15 00:21:00,75.4,73.5,30.10,NE,45,0.0,0.0,94,0.00,FEW,,0.00,WeatherDisplay:10.37,2013-07-15 04:21:00,
2013-07-15 00:26:00,75.4,73.5,30.10,NE,45,2.4,2.4,94,0.00,FEW,,0.00,WeatherDisplay:10.37,2013-07-15 04:26:00,
2013-07-15 00:31:00,75.4,73.5,30.10,NE,45,0.1,1.4,94,0.00,FEW,,0.00,WeatherDisplay:10.37,2013-07-15 04:31:00,
2013-07-15 00:36:00,75.6,73.7,30.10,NE,45,0.2,3.5,94,0.00,FEW,,0.00,WeatherDisplay:10.37,2013-07-15 04:36:00,
2013-07-15 00:41:00,75.6,73.7,30.10,NE,45,2.6,2.6,94,0.00,FEW,,0.00,WeatherDisplay:10.37,2013-07-15 04:41:00,
2013-07-15 00:46:00,75.6,73.7,30.09,NE,45,0.0,2.7,94,0.00,FEW,,0.00,WeatherDisplay:10.37,2013-07-15 04:46:00,
2013-07-15 00:51:00,75.6,73.7,30.09,NE,45,0.2,5.8,94,0.00,FEW,,0.00,WeatherDisplay:10.37,2013-07-15 04:51:00,
2013-07-15 00:56:00,75.7,73.9,30.09,East,90,0.9,5.8,94,0.00,FEW,,0.00,WeatherDisplay:10.37,2013-07-15 04:56:00,
2013-07-15 01:01:00,75.7,73.9,30.09,NE,45,0.8,3.5,94,0.00,FEW,,0.00,WeatherDisplay:10.37,2013-07-15 05:01:00,
2013-07-15 01:06:00,75.7,73.9,30.09,NE,45,0.4,2.7,94,0.00,FEW,,0.00,WeatherDisplay:10.37,2013-07-15 05:06:00,
2013-07-15 01:11:00,75.7,73.9,30.09,East,90,5.0,5.0,94,0.00,FEW,,0.00,WeatherDisplay:10.37,2013-07-15 05:11:00,
2013-07-15 01:16:00,75.7,74.2,30.09,East,90,0.2,2.7,95,0.00,FEW,,0.00,WeatherDisplay:10.37,2013-07-15 05:16:00,
2013-07-15 01:21:00,75.7,74.2,30.09,NE,45,0.0,5.8,95,0.00,FEW,,0.00,WeatherDisplay:10.37,2013-07-15 05:21:00,
2013-07-15 01:26:00,75.6,74.0,30.09,NE,45,0.0,0.0,95,0.00,FEW,,0.00,WeatherDisplay:10.37,2013-07-15 05:26:00,
2013-07-15 01:31:00,75.7,74.2,30.09,NE,45,0.2,0.0,95,0.00,BKN,,0.00,WeatherDisplay:10.37,2013-07-15 05:31:00,
2013-07-15 01:36:00,75.7,74.2,30.09,NE,45,0.0,0.0,95,0.00,BKN,,0.00,WeatherDisplay:10.37,2013-07-15 05:36:00,
2013-07-15 01:41:00,75.7,74.2,30.08,East,90,5.5,5.5,95,0.00,BKN,,0.00,WeatherDisplay:10.37,2013-07-15 05:41:00,
2013-07-15 01:46:00,75.9,74.4,30.09,NE,45,0.0,0.0,95,0.00,BKN,,0.00,WeatherDisplay:10.37,2013-07-15 05:46:00,
2013-07-15 01:51:00,75.9,74.4,30.09,NE,45,0.0,3.5,95,0.00,BKN,,0.00,WeatherDisplay:10.37,2013-07-15 05:51:00,
2013-07-15 01:56:00,75.9,74.4,30.09,NE,45,0.0,0.0,95,0.00,BKN,,0.00,WeatherDisplay:10.37,2013-07-15 05:56:00,
2013-07-15 02:01:00,75.9,74.4,30.09,NE,45,0.0,2.3,95,0.00,BKN,,0.00,WeatherDisplay:10.37,2013-07-15 06:01:00,
2013-07-15 02:06:00,75.9,74.4,30.09,NE,45,0.0,0.0,95,0.00,BKN,,0.00,WeatherDisplay:10.37,2013-07-15 06:06:00,
2013-07-15 02:11:00,75.9,74.4,30.09,East,90,0.0,0.0,95,0.00,BKN,,0.00,WeatherDisplay:10.37,2013-07-15 06:11:00,
2013-07-15 02:16:00,75.9,74.1,30.09,NE,45,0.0,0.0,94,0.00,SCT,,0.00,WeatherDisplay:10.37,2013-07-15 06:16:00,
2013-07-15 02:21:00,75.9,74.1,30.09,NE,45,0.0,0.0,94,0.00,SCT,,0.00,WeatherDisplay:10.37,2013-07-15 06:21:00,
2013-07-15 02:26:00,75.9,74.1,30.09,NE,45,0.4,2.6,94,0.00,SCT,,0.00,WeatherDisplay:10.37,2013-07-15 06:26:00,
2013-07-15 02:31:00,75.9,74.1,30.09,NE,45,0.0,0.0,94,0.00,SCT,,0.00,WeatherDisplay:10.37,2013-07-15 06:31:00,
2013-07-15 02:36:00,75.9,74.1,30.09,NE,45,4.7,4.7,94,0.00,SCT,,0.00,WeatherDisplay:10.37,2013-07-15 06:36:00,
2013-07-15 02:41:00,75.9,74.1,30.09,NE,45,1.1,2.6,94,0.00,SCT,,0.00,WeatherDisplay:10.37,2013-07-15 06:41:00,
2013-07-15 02:46:00,75.9,74.1,30.09,East,90,0.5,0.0,94,0.00,SCT,,0.00,WeatherDisplay:10.37,2013-07-15 06:46:00,
2013-07-15 02:51:00,75.9,74.1,30.09,NE,45,0.0,0.0,94,0.00,SCT,,0.00,WeatherDisplay:10.37,2013-07-15 06:51:00,
2013-07-15 02:56:00,75.7,73.9,30.09,NE,45,0.4,0.0,94,0.00,SCT,,0.00,WeatherDisplay:10.37,2013-07-15 06:56:00,
2013-07-15 03:01:00,75.6,74.0,30.09,NE,45,0.0,0.0,95,0.00,SCT,,0.00,WeatherDisplay:10.37,2013-07-15 07:01:00,
2013-07-15 03:06:00,75.2,73.7,30.09,NW,315,0.4,0.0,95,0.00,SCT,,0.00,WeatherDisplay:10.37,2013-07-15 07:06:00,
2013-07-15 03:11:00,75.2,73.7,30.09,NE,45,0.0,0.0,95,0.00,SCT,,0.00,WeatherDisplay:10.37,2013-07-15 07:11:00,
2013-07-15 03:16:00,75.0,73.5,30.09,NE,45,0.0,0.0,95,0.00,SCT,,0.00,WeatherDisplay:10.37,2013-07-15 07:16:00,
2013-07-15 03:21:00,74.8,73.3,30.09,NE,45,0.0,0.0,95,0.00,FEW,,0.00,WeatherDisplay:10.37,2013-07-15 07:21:00,
2013-07-15 03:26:00,74.7,73.1,30.08,NE,45,0.0,0.0,95,0.00,FEW,,0.00,WeatherDisplay:10.37,2013-07-15 07:26:00,
2013-07-15 03:31:00,74.5,73.0,30.08,NE,45,0.0,0.0,95,0.00,FEW,,0.00,WeatherDisplay:10.37,2013-07-15 07:31:00,
2013-07-15 03:36:00,74.5,73.0,30.08,NE,45,0.0,0.0,95,0.00,FEW,,0.00,WeatherDisplay:10.37,2013-07-15 07:36:00,
2013-07-15 03:41:00,74.5,73.0,30.07,NE,45,0.0,0.0,95,0.00,FEW,,0.00,WeatherDisplay:10.37,2013-07-15 07:41:00,
2013-07-15 03:46:00,74.3,73.1,30.07,NE,45,0.0,0.0,96,0.00,FEW,,0.00,WeatherDisplay:10.37,2013-07-15 07:46:00,
2013-07-15 03:51:00,74.3,73.1,30.07,NE,45,0.0,0.0,96,0.00,FEW,,0.00,WeatherDisplay:10.37,2013-07-15 07:51:00,
2013-07-15 03:56:00,74.3,73.1,30.07,NE,45,0.0,0.0,96,0.00,FEW,,0.00,WeatherDisplay:10.37,2013-07-15 07:56:00,
2013-07-15 04:01:00,74.3,73.1,30.07,NE,45,0.0,0.0,96,0.00,FEW,,0.00,WeatherDisplay:10.37,2013-07-15 08:01:00,
2013-07-15 04:06:00,74.3,73.1,30.07,NE,45,0.0,0.0,96,0.00,FEW,,0.00,WeatherDisplay:10.37,2013-07-15 08:06:00,
2013-07-15 04:11:00,74.1,72.9,30.07,NE,45,0.0,0.0,96,0.00,FEW,,0.00,WeatherDisplay:10.37,2013-07-15 08:11:00,
2013-07-15 04:16:00,73.9,72.7,30.07,NE,45,0.0,0.0,96,0.00,FEW,,0.00,WeatherDisplay:10.37,2013-07-15 08:16:00,
2013-07-15 04:21:00,73.9,72.7,30.07,NE,45,0.0,0.0,96,0.00,FEW,,0.00,WeatherDisplay:10.37,2013-07-15 08:21:00,
2013-07-15 04:26:00,73.8,72.5,30.07,NE,45,0.0,0.0,96,0.00,FEW,,0.00,WeatherDisplay:10.37,2013-07-15 08:26:00,
2013-07-15 04:31:00,73.6,72.4,30.07,NE,45,0.0,0.0,96,0.00,FEW,,0.00,WeatherDisplay:10.37,2013-07-15 08:31:00,
2013-07-15 04:36:00,73.6,72.4,30.07,NE,45,0.0,0.0,96,0.00,FEW,,0.00,WeatherDisplay:10.37,2013-07-15 08:36:00,
2013-07-15 04:41:00,73.6,72.7,30.07,NE,45,0.0,0.0,97,0.00,FEW,,0.00,WeatherDisplay:10.37,2013-07-15 08:41:00,
2013-07-15 04:46:00,73.6,72.7,30.07,NE,45,0.0,0.0,97,0.00,FEW,,0.00,WeatherDisplay:10.37,2013-07-15 08:46:00,
2013-07-15 04:50:00,73.6,72.7,30.07,NE,45,0.0,0.0,97,0.00,FEW,,0.00,WeatherDisplay:10.37,2013-07-15 08:50:00,
2013-07-15 04:55:00,73.6,72.7,30.07,NE,45,0.0,0.0,97,0.00,FEW,,0.00,WeatherDisplay:10.37,2013-07-15 08:55:00,
2013-07-15 05:00:00,73.6,72.7,30.07,NE,45,0.0,0.0,97,0.00,FEW,,0.00,WeatherDisplay:10.37,2013-07-15 09:00:00,
2013-07-15 05:05:00,73.4,72.5,30.07,NE,45,0.0,0.0,97,0.00,FEW,,0.00,WeatherDisplay:10.37,2013-07-15 09:05:00,
2013-07-15 05:10:00,73.4,72.5,30.07,NE,45,0.0,0.0,97,0.00,FEW,,0.00,WeatherDisplay:10.37,2013-07-15 09:10:00,
2013-07-15 05:16:00,73.2,72.3,30.08,NE,45,0.0,0.0,97,0.00,FEW,,0.00,WeatherDisplay:10.37,2013-07-15 09:16:00,
2013-07-15 05:21:00,73.2,72.3,30.08,NE,45,0.0,0.0,97,0.00,FEW,,0.00,WeatherDisplay:10.37,2013-07-15 09:21:00,
2013-07-15 05:25:00,73.2,72.3,30.08,NE,45,0.0,0.0,97,0.00,FEW,,0.00,WeatherDisplay:10.37,2013-07-15 09:25:00,
2013-07-15 05:30:00,73.2,72.3,30.08,NE,45,0.0,0.0,97,0.00,FEW,,0.00,WeatherDisplay:10.37,2013-07-15 09:30:00,
2013-07-15 05:35:00,73.2,72.3,30.08,NE,45,0.0,0.0,97,0.00,FEW,,0.00,WeatherDisplay:10.37,2013-07-15 09:35:00,
2013-07-15 05:40:00,73.2,72.3,30.08,NE,45,0.0,0.0,97,0.00,FEW,,0.00,WeatherDisplay:10.37,2013-07-15 09:40:00,
2013-07-15 05:45:00,73.0,72.1,30.09,NE,45,0.0,0.0,97,0.00,FEW,,0.00,WeatherDisplay:10.37,2013-07-15 09:45:00,
2013-07-15 05:50:00,72.9,72.0,30.09,NE,45,0.0,0.0,97,0.00,FEW,,0.00,WeatherDisplay:10.37,2013-07-15 09:50:00,
2013-07-15 05:55:00,72.9,72.0,30.08,NE,45,0.0,0.0,97,0.00,FEW,,0.00,WeatherDisplay:10.37,2013-07-15 09:55:00,
2013-07-15 06:00:00,73.0,72.1,30.09,NE,45,0.0,0.0,97,0.00,FEW,,0.00,WeatherDisplay:10.37,2013-07-15 10:00:00,
2013-07-15 06:05:00,73.0,72.1,30.08,NE,45,0.0,0.0,97,0.00,FEW,,0.00,WeatherDisplay:10.37,2013-07-15 10:05:00,
2013-07-15 06:10:00,73.0,72.1,30.09,NE,45,0.0,0.0,97,0.00,FEW,,0.00,WeatherDisplay:10.37,2013-07-15 10:10:00,
2013-07-15 06:15:00,72.7,71.8,30.08,NE,45,0.0,0.0,97,0.00,SCT,,0.00,WeatherDisplay:10.37,2013-07-15 10:15:00,
2013-07-15 06:20:00,72.7,71.8,30.08,NE,45,0.0,0.0,97,0.00,SCT,,0.00,WeatherDisplay:10.37,2013-07-15 10:20:00,
2013-07-15 06:25:00,73.0,72.1,30.09,NE,45,0.0,0.0,97,0.00,SCT,,0.00,WeatherDisplay:10.37,2013-07-15 10:25:00,
2013-07-15 06:30:00,73.0,72.1,30.09,NE,45,0.0,0.0,97,0.00,SCT,,0.00,WeatherDisplay:10.37,2013-07-15 10:30:00,
2013-07-15 06:35:00,72.9,72.0,30.09,NE,45,0.0,0.0,97,0.00,SCT,,0.00,WeatherDisplay:10.37,2013-07-15 10:35:00,
2013-07-15 06:40:00,73.0,72.1,30.09,NE,45,0.0,0.0,97,0.00,SCT,,0.00,WeatherDisplay:10.37,2013-07-15 10:40:00,
2013-07-15 06:45:00,73.0,72.1,30.09,NE,45,0.0,0.0,97,0.00,SCT,,0.00,WeatherDisplay:10.37,2013-07-15 10:45:00,
2013-07-15 06:50:00,73.2,72.3,30.08,NE,45,0.0,0.0,97,0.00,SCT,,0.00,WeatherDisplay:10.37,2013-07-15 10:50:00,
2013-07-15 06:55:00,73.2,72.3,30.08,NE,45,0.0,0.0,97,0.00,SCT,,0.00,WeatherDisplay:10.37,2013-07-15 10:55:00,
2013-07-15 07:00:00,73.2,72.3,30.08,NE,45,0.0,0.0,97,0.00,SCT,,0.00,WeatherDisplay:10.37,2013-07-15 11:00:00,
2013-07-15 07:05:00,73.2,72.3,30.08,NE,45,0.0,0.0,97,0.00,SCT,,0.00,WeatherDisplay:10.37,2013-07-15 11:05:00,
2013-07-15 07:10:00,73.6,72.7,30.08,NE,45,0.0,0.0,97,0.00,SCT,,0.00,WeatherDisplay:10.37,2013-07-15 11:10:00,
2013-07-15 07:15:00,73.6,72.7,30.09,NE,45,0.0,0.0,97,0.00,BKN,,0.00,WeatherDisplay:10.37,2013-07-15 11:15:00,
2013-07-15 07:20:00,73.6,72.7,30.09,NE,45,0.0,0.0,97,0.00,BKN,,0.00,WeatherDisplay:10.37,2013-07-15 11:20:00,
2013-07-15 07:25:00,73.6,72.7,30.08,NE,45,0.0,0.0,97,0.00,BKN,,0.00,WeatherDisplay:10.37,2013-07-15 11:25:00,
2013-07-15 07:30:00,73.8,72.9,30.09,NE,45,0.0,0.0,97,0.00,BKN,,0.00,WeatherDisplay:10.37,2013-07-15 11:30:00,
2013-07-15 07:35:00,73.9,73.0,30.09,NE,45,0.0,0.0,97,0.00,BKN,,0.00,WeatherDisplay:10.37,2013-07-15 11:35:00,
2013-07-15 07:40:00,73.9,73.0,30.10,NE,45,0.0,0.0,97,0.00,BKN,,0.00,WeatherDisplay:10.37,2013-07-15 11:40:00,
2013-07-15 07:45:00,74.1,73.2,30.09,NE,45,0.0,0.0,97,0.00,BKN,,0.00,WeatherDisplay:10.37,2013-07-15 11:45:00,
2013-07-15 07:50:00,74.1,73.2,30.10,NE,45,0.0,0.0,97,0.00,BKN,,0.00,WeatherDisplay:10.37,2013-07-15 11:50:00,
2013-07-15 07:55:00,74.5,73.6,30.10,NE,45,0.0,0.0,97,0.00,BKN,,0.00,WeatherDisplay:10.37,2013-07-15 11:55:00,
2013-07-15 08:00:00,74.8,74.2,30.10,NE,45,0.0,0.0,98,0.00,BKN,,0.00,WeatherDisplay:10.37,2013-07-15 12:00:00,
2013-07-15 08:05:00,75.0,74.4,30.10,NE,45,0.0,0.0,98,0.00,BKN,,0.00,WeatherDisplay:10.37,2013-07-15 12:05:00,
2013-07-15 08:10:00,75.4,74.8,30.10,NE,45,0.0,0.0,98,0.00,BKN,,0.00,WeatherDisplay:10.37,2013-07-15 12:10:00,
2013-07-15 08:11:00,75.4,74.8,30.10,NE,45,0.0,0.0,98,0.00,BKN,,0.00,WeatherDisplay:10.37,2013-07-15 12:11:00,
2013-07-15 08:16:00,75.4,74.8,30.10,NE,45,0.0,0.0,98,0.00,BKN,,0.00,WeatherDisplay:10.37,2013-07-15 12:16:00,
2013-07-15 08:21:00,75.7,74.8,30.10,NE,45,0.0,0.0,97,0.00,BKN,,0.00,WeatherDisplay:10.37,2013-07-15 12:21:00,
2013-07-15 08:26:00,76.5,75.5,30.11,NE,45,0.0,0.0,97,0.00,BKN,,0.00,WeatherDisplay:10.37,2013-07-15 12:26:00,
2013-07-15 08:31:00,76.6,75.7,30.11,NE,45,0.0,0.0,97,0.00,BKN,,0.00,WeatherDisplay:10.37,2013-07-15 12:31:00,
2013-07-15 08:36:00,76.6,75.7,30.10,NE,45,0.0,0.0,97,0.00,BKN,,0.00,WeatherDisplay:10.37,2013-07-15 12:36:00,
2013-07-15 08:41:00,76.6,75.7,30.11,NE,45,0.0,0.0,97,0.00,BKN,,0.00,WeatherDisplay:10.37,2013-07-15 12:41:00,
2013-07-15 08:46:00,77.2,76.3,30.11,NE,45,0.0,0.0,97,0.00,BKN,,0.00,WeatherDisplay:10.37,2013-07-15 12:46:00,
2013-07-15 08:51:00,77.4,76.4,30.11,NE,45,0.0,0.0,97,0.00,BKN,,0.00,WeatherDisplay:10.37,2013-07-15 12:51:00,
2013-07-15 08:56:00,77.5,76.6,30.11,NE,45,0.0,0.0,97,0.00,BKN,,0.00,WeatherDisplay:10.37,2013-07-15 12:56:00,
2013-07-15 09:00:00,77.7,76.8,30.11,NE,45,0.0,0.0,97,0.00,BKN,,0.00,WeatherDisplay:10.37,2013-07-15 13:00:00,
2013-07-15 09:05:00,77.9,76.7,30.11,NE,45,0.0,0.0,96,0.00,BKN,,0.00,WeatherDisplay:10.37,2013-07-15 13:05:00,
2013-07-15 09:10:00,77.7,76.2,30.11,NW,315,0.0,2.3,95,0.00,BKN,,0.00,WeatherDisplay:10.37,2013-07-15 13:10:00,
2013-07-15 09:15:00,77.7,76.2,30.12,NW,315,0.0,0.0,95,0.00,BKN,,0.00,WeatherDisplay:10.37,2013-07-15 13:15:00,
2013-07-15 09:20:00,77.7,76.2,30.12,NW,315,0.0,0.0,95,0.00,BKN,,0.00,WeatherDisplay:10.37,2013-07-15 13:20:00,
2013-07-15 09:25:00,77.7,76.2,30.12,NW,315,0.0,0.0,95,0.00,BKN,,0.00,WeatherDisplay:10.37,2013-07-15 13:25:00,
2013-07-15 09:30:00,77.7,76.2,30.11,NW,315,0.0,0.0,95,0.00,BKN,,0.00,WeatherDisplay:10.37,2013-07-15 13:30:00,
2013-07-15 09:35:00,77.5,76.0,30.11,NW,315,0.0,0.0,95,0.00,BKN,,0.00,WeatherDisplay:10.37,2013-07-15 13:35:00,
2013-07-15 09:40:00,77.7,76.2,30.11,NW,315,0.0,0.0,95,0.00,BKN,,0.00,WeatherDisplay:10.37,2013-07-15 13:40:00,
2013-07-15 09:45:00,77.7,76.5,30.11,NW,315,0.0,0.0,96,0.00,BKN,,0.00,WeatherDisplay:10.37,2013-07-15 13:45:00,
2013-07-15 09:50:00,77.7,76.5,30.11,NW,315,0.0,0.0,96,0.00,BKN,,0.00,WeatherDisplay:10.37,2013-07-15 13:50:00,
2013-07-15 09:55:00,77.7,76.5,30.11,NW,315,0.0,0.0,96,0.00,BKN,,0.00,WeatherDisplay:10.37,2013-07-15 13:55:00,
2013-07-15 10:00:00,77.7,76.5,30.11,NW,315,0.0,0.0,96,0.00,BKN,,0.00,WeatherDisplay:10.37,2013-07-15 14:00:00,
2013-07-15 10:05:00,77.7,76.5,30.11,North,0,0.0,0.0,96,0.00,BKN,,0.00,WeatherDisplay:10.37,2013-07-15 14:05:00,
2013-07-15 10:10:00,77.7,76.5,30.12,North,0,0.0,0.0,96,0.00,BKN,,0.00,WeatherDisplay:10.37,2013-07-15 14:10:00,
2013-07-15 10:15:00,77.7,76.5,30.12,North,0,0.0,0.0,96,0.00,BKN,,0.00,WeatherDisplay:10.37,2013-07-15 14:15:00,
2013-07-15 10:20:00,77.7,76.5,30.12,NE,45,0.0,2.3,96,0.00,BKN,,0.00,WeatherDisplay:10.37,2013-07-15 14:20:00,
2013-07-15 10:25:00,77.5,76.3,30.12,North,0,0.0,0.0,96,0.00,BKN,,0.00,WeatherDisplay:10.37,2013-07-15 14:25:00,
2013-07-15 10:30:00,77.4,76.1,30.12,NE,45,0.0,0.0,96,0.00,BKN,,0.00,WeatherDisplay:10.37,2013-07-15 14:30:00,
2013-07-15 10:35:00,77.2,76.0,30.12,NE,45,0.0,2.3,96,0.00,BKN,,0.00,WeatherDisplay:10.37,2013-07-15 14:35:00,
2013-07-15 10:40:00,77.0,75.5,30.12,NE,45,0.0,0.0,95,0.00,BKN,,0.00,WeatherDisplay:10.37,2013-07-15 14:40:00,
2013-07-15 10:45:00,76.8,75.3,30.12,NE,45,0.0,0.0,95,0.00,BKN,,0.00,WeatherDisplay:10.37,2013-07-15 14:45:00,
2013-07-15 10:51:00,77.2,75.6,30.12,NE,45,0.0,0.0,95,0.00,BKN,,0.00,WeatherDisplay:10.37,2013-07-15 14:51:00,
2013-07-15 10:56:00,77.5,76.0,30.12,NE,45,0.0,0.0,95,0.00,BKN,,0.00,WeatherDisplay:10.37,2013-07-15 14:56:00,
2013-07-15 11:01:00,79.0,77.1,30.12,NE,45,0.0,0.0,94,0.00,BKN,,0.00,WeatherDisplay:10.37,2013-07-15 15:01:00,
2013-07-15 11:06:00,80.8,78.2,30.12,NE,45,0.3,2.7,92,0.00,BKN,,0.00,WeatherDisplay:10.37,2013-07-15 15:06:00,
2013-07-15 11:11:00,83.1,78.8,30.12,NE,45,0.1,2.6,87,0.00,BKN,,0.00,WeatherDisplay:10.37,2013-07-15 15:11:00,
2013-07-15 11:16:00,83.8,79.6,30.12,NE,45,0.4,2.2,87,0.00,BKN,,0.00,WeatherDisplay:10.37,2013-07-15 15:16:00,
2013-07-15 11:21:00,84.9,79.2,30.12,East,90,0.0,0.0,83,0.00,BKN,,0.00,WeatherDisplay:10.37,2013-07-15 15:21:00,
2013-07-15 11:26:00,84.7,79.4,30.12,NE,45,0.4,0.0,84,0.00,BKN,,0.00,WeatherDisplay:10.37,2013-07-15 15:26:00,
2013-07-15 11:32:00,84.7,78.6,30.12,NW,315,0.1,2.7,82,0.00,BKN,,0.00,WeatherDisplay:10.37,2013-07-15 15:32:00,
2013-07-15 11:37:00,84.9,78.1,30.12,NE,45,0.0,0.0,80,0.00,BKN,,0.00,WeatherDisplay:10.37,2013-07-15 15:37:00,
2013-07-15 11:43:00,84.0,77.2,30.12,North,0,0.0,0.0,80,0.00,BKN,,0.00,WeatherDisplay:10.37,2013-07-15 15:43:00,
2013-07-15 11:48:00,83.1,77.1,30.12,North,0,0.0,0.0,82,0.00,BKN,,0.00,WeatherDisplay:10.37,2013-07-15 15:48:00,
2013-07-15 11:53:00,84.9,78.4,30.11,North,0,0.3,0.0,81,0.00,BKN,,0.00,WeatherDisplay:10.37,2013-07-15 15:53:00,
2013-07-15 11:58:00,84.6,77.7,30.11,NW,315,0.0,0.0,80,0.00,BKN,,0.00,WeatherDisplay:10.37,2013-07-15 15:58:00,
2013-07-15 12:04:00,84.4,77.9,30.11,NW,315,0.2,0.0,81,0.00,BKN,,0.00,WeatherDisplay:10.37,2013-07-15 16:04:00,
2013-07-15 12:09:00,84.7,78.3,30.11,North,0,0.0,0.0,81,0.00,BKN,,0.00,WeatherDisplay:10.37,2013-07-15 16:09:00,
2013-07-15 12:14:00,83.8,77.8,30.11,East,90,0.1,2.3,82,0.00,-RA,,0.00,WeatherDisplay:10.37,2013-07-15 16:14:00,
2013-07-15 12:19:00,83.5,77.8,30.12,East,90,2.9,5.1,83,0.00,-RA,,0.00,WeatherDisplay:10.37,2013-07-15 16:19:00,
2013-07-15 12:24:00,83.5,77.4,30.12,NE,45,6.1,6.9,82,0.00,-RA,,0.00,WeatherDisplay:10.37,2013-07-15 16:24:00,
2013-07-15 12:29:00,84.9,78.4,30.12,NE,45,0.4,2.7,81,0.00,-RA,,0.00,WeatherDisplay:10.37,2013-07-15 16:29:00,
2013-07-15 12:34:00,86.5,79.6,30.11,East,90,3.8,8.1,80,0.00,-RA,,0.00,WeatherDisplay:10.37,2013-07-15 16:34:00,
2013-07-15 12:39:00,87.4,78.1,30.11,NE,45,8.1,8.1,74,0.00,-RA,,0.00,WeatherDisplay:10.37,2013-07-15 16:39:00,
2013-07-15 12:44:00,86.9,78.0,30.10,East,90,0.9,5.8,75,0.00,-RA,,0.00,WeatherDisplay:10.37,2013-07-15 16:44:00,
2013-07-15 12:49:00,86.4,77.9,30.10,NE,45,2.0,10.4,76,0.00,-RA,,0.00,WeatherDisplay:10.37,2013-07-15 16:49:00,
2013-07-15 12:54:00,85.3,77.2,30.10,NW,315,1.6,5.8,77,0.00,-RA,,0.00,WeatherDisplay:10.37,2013-07-15 16:54:00,
2013-07-15 12:59:00,84.7,77.1,30.10,North,0,1.2,3.5,78,0.00,-RA,,0.00,WeatherDisplay:10.37,2013-07-15 16:59:00,
2013-07-15 13:05:00,84.4,77.5,30.10,NE,45,7.3,8.1,80,0.00,BKN,,0.00,WeatherDisplay:10.37,2013-07-15 17:05:00,
2013-07-15 13:10:00,84.6,77.3,30.10,North,0,0.1,5.8,79,0.00,BKN,,0.00,WeatherDisplay:10.37,2013-07-15 17:10:00,
2013-07-15 13:16:00,84.9,77.7,30.10,North,0,1.1,5.4,79,0.00,BKN,,0.00,WeatherDisplay:10.37,2013-07-15 17:16:00,
2013-07-15 13:21:00,85.6,78.0,30.11,NE,45,1.4,2.6,78,0.00,BKN,,0.00,WeatherDisplay:10.37,2013-07-15 17:21:00,
2013-07-15 13:27:00,85.6,78.0,30.11,NE,45,0.5,0.0,78,0.00,BKN,,0.00,WeatherDisplay:10.37,2013-07-15 17:27:00,
2013-07-15 13:32:00,84.9,77.7,30.11,North,0,0.2,2.7,79,0.00,BKN,,0.00,WeatherDisplay:10.37,2013-07-15 17:32:00,
2013-07-15 13:37:00,85.6,78.0,30.10,North,0,0.0,0.0,78,0.00,BKN,,0.00,WeatherDisplay:10.37,2013-07-15 17:37:00,
2013-07-15 13:42:00,85.8,78.2,30.09,North,0,3.0,5.4,78,0.00,BKN,,0.00,WeatherDisplay:10.37,2013-07-15 17:42:00,
2013-07-15 13:47:00,84.9,77.3,30.10,East,90,3.7,6.2,78,0.00,BKN,,0.00,WeatherDisplay:10.37,2013-07-15 17:47:00,
2013-07-15 13:51:00,84.4,78.3,30.10,NE,45,0.4,4.3,82,0.00,BKN,,0.00,WeatherDisplay:10.37,2013-07-15 17:51:00,
2013-07-15 13:56:00,82.2,77.3,30.10,North,0,5.8,6.9,85,0.00,BKN,,0.00,WeatherDisplay:10.37,2013-07-15 17:56:00,
2013-07-15 14:01:00,80.8,77.2,30.10,North,0,1.8,2.3,89,0.02,RA,,0.02,WeatherDisplay:10.37,2013-07-15 18:01:00,
2013-07-15 14:06:00,81.0,77.4,30.10,NE,45,0.0,0.0,89,0.02,RA,,0.02,WeatherDisplay:10.37,2013-07-15 18:06:00,
2013-07-15 14:11:00,80.6,77.4,30.10,North,0,3.1,3.5,90,0.02,RA,,0.02,WeatherDisplay:10.37,2013-07-15 18:11:00,
2013-07-15 14:16:00,81.1,77.9,30.10,NE,45,1.1,5.4,90,0.02,BKN,,0.02,WeatherDisplay:10.37,2013-07-15 18:16:00,
2013-07-15 14:22:00,81.1,77.6,30.09,NE,45,3.5,3.5,89,0.02,BKN,,0.02,WeatherDisplay:10.37,2013-07-15 18:22:00,
2013-07-15 14:27:00,81.3,77.8,30.09,NE,45,1.3,2.7,89,0.02,BKN,,0.02,WeatherDisplay:10.37,2013-07-15 18:27:00,
2013-07-15 14:32:00,80.2,76.0,30.10,NE,45,2.5,2.7,87,0.02,BKN,,0.02,WeatherDisplay:10.37,2013-07-15 18:32:00,
2013-07-15 14:37:00,77.7,74.9,30.10,North,0,0.0,0.0,91,0.11,RA,,0.11,WeatherDisplay:10.37,2013-07-15 18:37:00,
2013-07-15 14:42:00,77.2,75.0,30.10,NE,45,0.0,0.0,93,0.28,RA,,0.28,WeatherDisplay:10.37,2013-07-15 18:42:00,
2013-07-15 14:48:00,77.5,75.7,30.10,NE,45,0.0,0.0,94,0.28,RA,,0.28,WeatherDisplay:10.37,2013-07-15 18:48:00,
2013-07-15 14:53:00,77.7,75.9,30.10,NE,45,0.0,0.0,94,0.28,RA,,0.28,WeatherDisplay:10.37,2013-07-15 18:53:00,
2013-07-15 14:58:00,78.6,76.7,30.10,NE,45,0.9,5.4,94,0.28,BKN,,0.28,WeatherDisplay:10.37,2013-07-15 18:58:00,
2013-07-15 15:04:00,78.4,76.6,30.10,NE,45,12.5,12.5,94,0.28,BKN,,0.28,WeatherDisplay:10.37,2013-07-15 19:04:00,
2013-07-15 15:09:00,77.5,75.7,30.09,NE,45,0.6,2.3,94,0.28,BKN,,0.28,WeatherDisplay:10.37,2013-07-15 19:09:00,
2013-07-15 15:15:00,77.5,75.7,30.09,East,90,0.2,5.8,94,0.30,RA,,0.30,WeatherDisplay:10.37,2013-07-15 19:15:00,
2013-07-15 15:20:00,77.7,75.9,30.09,NE,45,0.0,4.6,94,0.30,RA,,0.30,WeatherDisplay:10.37,2013-07-15 19:20:00,
2013-07-15 15:25:00,77.9,76.0,30.08,East,90,3.4,3.5,94,0.30,RA,,0.30,WeatherDisplay:10.37,2013-07-15 19:25:00,
2013-07-15 15:30:00,78.1,76.2,30.08,NE,45,0.5,2.7,94,0.30,BKN,,0.30,WeatherDisplay:10.37,2013-07-15 19:30:00,
2013-07-15 15:35:00,78.4,76.6,30.07,NE,45,2.6,4.6,94,0.28,BKN,,0.30,WeatherDisplay:10.37,2013-07-15 19:35:00,
2013-07-15 15:40:00,78.6,76.7,30.07,NE,45,0.0,3.5,94,0.28,BKN,,0.30,WeatherDisplay:10.37,2013-07-15 19:40:00,
2013-07-15 15:46:00,79.2,77.6,30.07,NE,45,0.2,0.0,95,0.28,BKN,,0.30,WeatherDisplay:10.37,2013-07-15 19:46:00,
2013-07-15 15:51:00,79.3,77.5,30.07,NE,45,0.1,0.0,94,0.28,BKN,,0.30,WeatherDisplay:10.37,2013-07-15 19:51:00,
2013-07-15 15:56:00,79.0,76.8,30.07,East,90,8.0,8.1,93,0.30,RA,,0.32,WeatherDisplay:10.37,2013-07-15 19:56:00,
2013-07-15 16:01:00,78.4,76.2,30.08,NE,45,0.3,2.7,93,0.30,RA,,0.32,WeatherDisplay:10.37,2013-07-15 20:01:00,
2013-07-15 16:07:00,78.1,76.2,30.08,East,90,5.2,5.2,94,0.30,RA,,0.32,WeatherDisplay:10.37,2013-07-15 20:07:00,
2013-07-15 16:13:00,78.4,76.6,30.08,East,90,1.3,5.8,94,0.21,BKN,,0.32,WeatherDisplay:10.37,2013-07-15 20:13:00,
2013-07-15 16:18:00,79.3,77.5,30.08,NE,45,0.2,3.8,94,0.04,BKN,,0.32,WeatherDisplay:10.37,2013-07-15 20:18:00,
2013-07-15 16:23:00,79.3,77.5,30.07,NE,45,5.8,9.2,94,0.04,BKN,,0.32,WeatherDisplay:10.37,2013-07-15 20:23:00,
2013-07-15 16:28:00,79.0,76.5,30.08,North,0,9.8,13.8,92,0.04,BKN,,0.32,WeatherDisplay:10.37,2013-07-15 20:28:00,
2013-07-15 16:33:00,78.1,75.9,30.08,NE,45,1.7,9.2,93,0.11,RA,,0.38,WeatherDisplay:10.37,2013-07-15 20:33:00,
2013-07-15 16:38:00,77.4,75.5,30.08,East,90,0.1,5.8,94,0.13,RA,,0.41,WeatherDisplay:10.37,2013-07-15 20:38:00,
2013-07-15 16:43:00,76.8,75.0,30.08,NE,45,0.0,0.0,94,0.15,RA,,0.43,WeatherDisplay:10.37,2013-07-15 20:43:00,
2013-07-15 16:48:00,76.8,75.3,30.08,NE,45,4.4,8.1,95,0.13,RA,,0.43,WeatherDisplay:10.37,2013-07-15 20:48:00,
2013-07-15 16:53:00,76.8,75.3,30.07,NE,45,2.3,4.6,95,0.13,RA,,0.43,WeatherDisplay:10.37,2013-07-15 20:53:00,
2013-07-15 16:58:00,76.8,75.3,30.07,NE,45,0.0,4.6,95,0.13,BKN,,0.43,WeatherDisplay:10.37,2013-07-15 20:58:00,
2013-07-15 17:03:00,77.2,75.6,30.07,NE,45,0.0,5.8,95,0.13,BKN,,0.43,WeatherDisplay:10.37,2013-07-15 21:03:00,
2013-07-15 17:08:00,77.2,75.6,30.07,NE,45,0.2,4.6,95,0.13,BKN,,0.43,WeatherDisplay:10.37,2013-07-15 21:08:00,
2013-07-15 17:14:00,77.4,75.8,30.07,NE,45,0.0,4.6,95,0.13,BKN,,0.43,WeatherDisplay:10.37,2013-07-15 21:14:00,
2013-07-15 17:20:00,77.5,76.0,30.07,NE,45,1.7,5.8,95,0.13,BKN,,0.43,WeatherDisplay:10.37,2013-07-15 21:20:00,
2013-07-15 17:25:00,77.5,76.0,30.07,NE,45,2.9,2.9,95,0.13,BKN,,0.43,WeatherDisplay:10.37,2013-07-15 21:25:00,
2013-07-15 17:30:00,77.9,76.4,30.07,NE,45,3.8,4.2,95,0.13,-RA,,0.43,WeatherDisplay:10.37,2013-07-15 21:30:00,
2013-07-15 17:36:00,78.1,76.5,30.06,NE,45,2.0,5.6,95,0.13,-RA,,0.43,WeatherDisplay:10.37,2013-07-15 21:36:00,
2013-07-15 17:41:00,78.1,76.5,30.06,North,0,6.0,8.4,95,0.13,-RA,,0.43,WeatherDisplay:10.37,2013-07-15 21:41:00,
2013-07-15 17:46:00,78.4,76.6,30.06,East,90,5.9,8.1,94,0.13,-RA,,0.43,WeatherDisplay:10.37,2013-07-15 21:46:00,
2013-07-15 17:51:00,78.4,76.6,30.06,NE,45,3.4,3.4,94,0.11,-RA,,0.43,WeatherDisplay:10.37,2013-07-15 21:51:00,
2013-07-15 17:57:00,78.8,76.9,30.06,NE,45,0.0,2.3,94,0.11,-RA,,0.43,WeatherDisplay:10.37,2013-07-15 21:57:00,
2013-07-15 18:02:00,79.0,77.1,30.06,NE,45,6.6,6.6,94,0.11,-RA,,0.43,WeatherDisplay:10.37,2013-07-15 22:02:00,
2013-07-15 18:07:00,79.2,77.3,30.07,East,90,0.0,0.0,94,0.11,BKN,,0.43,WeatherDisplay:10.37,2013-07-15 22:07:00,
2013-07-15 18:12:00,79.3,77.1,30.07,NE,45,0.4,2.8,93,0.11,BKN,,0.43,WeatherDisplay:10.37,2013-07-15 22:12:00,
2013-07-15 18:17:00,79.7,77.2,30.07,NE,45,3.1,8.1,92,0.11,BKN,,0.43,WeatherDisplay:10.37,2013-07-15 22:17:00,
2013-07-15 18:22:00,80.2,77.7,30.06,NE,45,1.9,5.8,92,0.11,BKN,,0.43,WeatherDisplay:10.37,2013-07-15 22:22:00,
2013-07-15 18:27:00,80.1,77.2,30.06,NE,45,5.2,5.2,91,0.09,BKN,,0.43,WeatherDisplay:10.37,2013-07-15 22:27:00,
2013-07-15 18:33:00,80.1,77.2,30.06,NE,45,1.4,3.5,91,0.02,BKN,,0.43,WeatherDisplay:10.37,2013-07-15 22:33:00,
2013-07-15 18:38:00,79.9,77.0,30.06,East,90,1.7,5.8,91,0.00,BKN,,0.43,WeatherDisplay:10.37,2013-07-15 22:38:00,
2013-07-15 18:43:00,79.9,77.0,30.06,NE,45,2.9,5.6,91,0.00,BKN,,0.43,WeatherDisplay:10.37,2013-07-15 22:43:00,
2013-07-15 18:49:00,79.9,77.0,30.06,SE,135,4.3,4.6,91,0.00,BKN,,0.43,WeatherDisplay:10.37,2013-07-15 22:49:00,
2013-07-15 18:54:00,79.5,77.0,30.06,NE,45,3.0,5.8,92,0.00,BKN,,0.43,WeatherDisplay:10.37,2013-07-15 22:54:00,
2013-07-15 18:59:00,79.2,76.3,30.06,South,180,0.6,8.1,91,0.00,BKN,,0.43,WeatherDisplay:10.37,2013-07-15 22:59:00,
2013-07-15 19:04:00,79.2,76.6,30.06,East,90,3.5,8.1,92,0.00,BKN,,0.43,WeatherDisplay:10.37,2013-07-15 23:04:00,
2013-07-15 19:09:00,79.3,76.8,30.07,NE,45,6.3,6.3,92,0.00,BKN,,0.43,WeatherDisplay:10.37,2013-07-15 23:09:00,
2013-07-15 19:14:00,79.3,76.8,30.07,NE,45,2.4,12.7,92,0.00,BKN,,0.43,WeatherDisplay:10.37,2013-07-15 23:14:00,
2013-07-15 19:19:00,79.5,77.0,30.07,East,90,2.4,2.8,92,0.00,BKN,,0.43,WeatherDisplay:10.37,2013-07-15 23:19:00,
2013-07-15 19:25:00,79.5,77.0,30.07,NE,45,3.3,8.4,92,0.00,BKN,,0.43,WeatherDisplay:10.37,2013-07-15 23:25:00,
2013-07-15 19:30:00,79.5,77.0,30.07,East,90,1.8,4.2,92,0.00,BKN,,0.43,WeatherDisplay:10.37,2013-07-15 23:30:00,
2013-07-15 19:35:00,79.5,77.0,30.07,NE,45,0.9,5.6,92,0.00,BKN,,0.43,WeatherDisplay:10.37,2013-07-15 23:35:00,
2013-07-15 19:40:00,79.5,77.0,30.07,East,90,3.7,5.8,92,0.00,BKN,,0.43,WeatherDisplay:10.37,2013-07-15 23:40:00,
2013-07-15 19:45:00,79.9,77.3,30.07,NE,45,5.1,5.1,92,0.00,BKN,,0.43,WeatherDisplay:10.37,2013-07-15 23:45:00,
2013-07-15 19:50:00,79.7,76.8,30.07,SE,135,5.0,5.6,91,0.00,BKN,,0.43,WeatherDisplay:10.37,2013-07-15 23:50:00,
2013-07-15 19:55:00,79.7,76.8,30.07,NE,45,3.7,12.7,91,0.00,BKN,,0.43,WeatherDisplay:10.37,2013-07-15 23:55:00,
2013-07-15 20:00:00,79.7,76.8,30.07,NE,45,0.3,2.8,91,0.00,BKN,,0.43,WeatherDisplay:10.37,2013-07-16 00:00:00,
2013-07-15 20:05:00,79.5,76.7,30.07,NE,45,0.9,5.8,91,0.00,BKN,,0.43,WeatherDisplay:10.37,2013-07-16 00:05:00,
2013-07-15 20:10:00,79.5,76.7,30.07,NE,45,4.3,5.6,91,0.00,BKN,,0.43,WeatherDisplay:10.37,2013-07-16 00:10:00,
2013-07-15 20:16:00,79.2,76.6,30.07,NE,45,6.1,6.1,92,0.00,BKN,,0.43,WeatherDisplay:10.37,2013-07-16 00:16:00,
2013-07-15 20:21:00,79.0,76.5,30.07,NE,45,5.1,8.4,92,0.00,BKN,,0.43,WeatherDisplay:10.37,2013-07-16 00:21:00,
2013-07-15 20:26:00,79.0,76.5,30.08,NE,45,3.6,5.8,92,0.00,BKN,,0.43,WeatherDisplay:10.37,2013-07-16 00:26:00,
2013-07-15 20:31:00,79.2,76.6,30.08,NE,45,4.3,4.6,92,0.00,BKN,,0.43,WeatherDisplay:10.37,2013-07-16 00:31:00,
2013-07-15 20:36:00,79.0,76.5,30.08,NE,45,0.3,2.8,92,0.00,BKN,,0.43,WeatherDisplay:10.37,2013-07-16 00:36:00,
2013-07-15 20:41:00,78.8,76.3,30.08,East,90,0.6,5.8,92,0.00,BKN,,0.43,WeatherDisplay:10.37,2013-07-16 00:41:00,
2013-07-15 20:46:00,78.8,76.3,30.08,East,90,2.5,5.8,92,0.00,BKN,,0.43,WeatherDisplay:10.37,2013-07-16 00:46:00,
2013-07-15 20:51:00,78.6,76.1,30.09,NE,45,2.4,2.8,92,0.00,BKN,,0.43,WeatherDisplay:10.37,2013-07-16 00:51:00,
2013-07-15 20:57:00,78.6,76.4,30.09,NE,45,2.1,5.8,93,0.00,BKN,,0.43,WeatherDisplay:10.37,2013-07-16 00:57:00,
2013-07-15 21:02:00,78.4,76.2,30.09,NE,45,1.4,2.8,93,0.00,BKN,,0.43,WeatherDisplay:10.37,2013-07-16 01:02:00,
2013-07-15 21:08:00,78.4,75.9,30.09,North,0,0.5,2.8,92,0.00,BKN,,0.43,WeatherDisplay:10.37,2013-07-16 01:08:00,
2013-07-15 21:13:00,78.4,75.9,30.10,NE,45,0.6,2.8,92,0.00,BKN,,0.43,WeatherDisplay:10.37,2013-07-16 01:13:00,
2013-07-15 21:18:00,78.4,75.9,30.10,NE,45,1.2,3.5,92,0.00,BKN,,0.43,WeatherDisplay:10.37,2013-07-16 01:18:00,
2013-07-15 21:23:00,78.4,75.9,30.10,NE,45,0.8,2.8,92,0.00,BKN,,0.43,WeatherDisplay:10.37,2013-07-16 01:23:00,
2013-07-15 21:28:00,78.1,75.6,30.10,NE,45,0.4,0.0,92,0.00,BKN,,0.43,WeatherDisplay:10.37,2013-07-16 01:28:00,
2013-07-15 21:33:00,78.1,75.6,30.10,East,90,1.8,4.6,92,0.00,BKN,,0.43,WeatherDisplay:10.37,2013-07-16 01:33:00,
2013-07-15 21:39:00,77.9,75.4,30.10,East,90,0.0,2.3,92,0.00,BKN,,0.43,WeatherDisplay:10.37,2013-07-16 01:39:00,
2013-07-15 21:45:00,77.7,75.2,30.10,East,90,0.0,0.0,92,0.00,-RA,,0.43,WeatherDisplay:10.37,2013-07-16 01:45:00,
2013-07-15 21:50:00,77.7,75.2,30.10,NE,45,2.8,2.8,92,0.00,-RA,,0.43,WeatherDisplay:10.37,2013-07-16 01:50:00,
2013-07-15 21:55:00,77.7,75.2,30.10,East,90,3.3,3.3,92,0.00,-RA,,0.43,WeatherDisplay:10.37,2013-07-16 01:55:00,
2013-07-15 22:00:00,77.5,75.0,30.10,NE,45,0.4,2.8,92,0.00,-RA,,0.43,WeatherDisplay:10.37,2013-07-16 02:00:00,
2013-07-15 22:06:00,77.5,74.7,30.11,NE,45,4.0,4.2,91,0.00,-RA,,0.43,WeatherDisplay:10.37,2013-07-16 02:06:00,
2013-07-15 22:11:00,77.7,74.9,30.12,NE,45,1.3,4.6,91,0.00,-RA,,0.43,WeatherDisplay:10.37,2013-07-16 02:11:00,
2013-07-15 22:16:00,77.5,74.7,30.12,NE,45,0.2,2.8,91,0.00,-RA,,0.43,WeatherDisplay:10.37,2013-07-16 02:16:00,
2013-07-15 22:21:00,77.5,74.7,30.13,NE,45,0.1,8.1,91,0.00,-RA,,0.43,WeatherDisplay:10.37,2013-07-16 02:21:00,
2013-07-15 22:27:00,77.5,74.7,30.13,NE,45,1.3,2.8,91,0.00,-RA,,0.43,WeatherDisplay:10.37,2013-07-16 02:27:00,
2013-07-15 22:32:00,77.4,74.5,30.13,NE,45,0.0,0.0,91,0.00,-RA,,0.43,WeatherDisplay:10.37,2013-07-16 02:32:00,
2013-07-15 22:37:00,77.2,74.7,30.12,SE,135,3.9,5.8,92,0.00,BKN,,0.43,WeatherDisplay:10.37,2013-07-16 02:37:00,
2013-07-15 22:42:00,77.4,74.9,30.12,East,90,0.0,2.3,92,0.00,BKN,,0.43,WeatherDisplay:10.37,2013-07-16 02:42:00,
2013-07-15 22:47:00,77.2,74.7,30.12,NE,45,0.2,2.8,92,0.00,BKN,,0.43,WeatherDisplay:10.37,2013-07-16 02:47:00,
2013-07-15 22:52:00,77.2,74.7,30.13,NE,45,0.0,2.3,92,0.00,BKN,,0.43,WeatherDisplay:10.37,2013-07-16 02:52:00,
2013-07-15 22:58:00,77.2,74.7,30.13,NE,45,0.0,2.3,92,0.00,BKN,,0.43,WeatherDisplay:10.37,2013-07-16 02:58:00,
2013-07-15 23:03:00,76.8,74.6,30.13,NE,45,0.0,2.3,93,0.00,BKN,,0.43,WeatherDisplay:10.37,2013-07-16 03:03:00,
2013-07-15 23:08:00,76.8,74.6,30.13,NE,45,0.0,2.3,93,0.00,BKN,,0.43,WeatherDisplay:10.37,2013-07-16 03:08:00,
2013-07-15 23:13:00,76.8,74.6,30.13,East,90,0.1,2.8,93,0.00,BKN,,0.43,WeatherDisplay:10.37,2013-07-16 03:13:00,
2013-07-15 23:18:00,76.8,74.6,30.13,NE,45,0.3,0.0,93,0.00,BKN,,0.43,WeatherDisplay:10.37,2013-07-16 03:18:00,
2013-07-15 23:23:00,77.0,74.8,30.13,NE,45,0.9,2.3,93,0.00,BKN,,0.43,WeatherDisplay:10.37,2013-07-16 03:23:00,
2013-07-15 23:28:00,77.2,75.3,30.14,NE,45,0.4,2.3,94,0.00,BKN,,0.43,WeatherDisplay:10.37,2013-07-16 03:28:00,
2013-07-15 23:33:00,77.2,75.3,30.14,East,90,0.2,2.3,94,0.00,BKN,,0.43,WeatherDisplay:10.37,2013-07-16 03:33:00,
2013-07-15 23:38:00,77.2,75.3,30.14,East,90,1.2,4.6,94,0.00,BKN,,0.43,WeatherDisplay:10.37,2013-07-16 03:38:00,
2013-07-15 23:45:00,77.2,75.3,30.14,NE,45,0.1,1.4,94,0.00,BKN,,0.43,WeatherDisplay:10.37,2013-07-16 03:45:00,
2013-07-15 23:49:00,77.2,75.3,30.13,East,90,0.4,2.8,94,0.00,BKN,,0.43,WeatherDisplay:10.37,2013-07-16 03:49:00,
2013-07-15 23:54:00,77.2,75.3,30.13,NE,45,0.1,1.4,94,0.00,BKN,,0.43,WeatherDisplay:10.37,2013-07-16 03:54:00,